Time;durP1;ratioP1;P1;durP2;ratioP2;P2;SDS_P1;SDS_P2;PMS_P1;PMS_P2;Temp;Humidity;BMP_temperature;BMP_pressure;BME280_temperature;BME280_humidity;BME280_pressure;Samples;Min_cycle;Max_cycle;Signal;HPM_P1;HPM_P2
2021/09/17 00:00:05;;;;;;;41.08;27.10;;;;;;;15.18;84.52;101888.72;5063926;28;20508;-60
2021/09/17 00:02:30;;;;;;;44.10;27.95;;;;;;;15.20;85.00;101884.28;5064317;28;20036;-60
2021/09/17 00:04:56;;;;;;;41.83;27.30;;;;;;;15.23;84.80;101893.09;5064338;28;20118;-59
2021/09/17 00:07:21;;;;;;;43.38;26.65;;;;;;;15.23;84.85;101880.72;5064079;28;20035;-60
2021/09/17 00:09:47;;;;;;;43.78;27.33;;;;;;;15.24;84.71;101882.50;5062498;28;20127;-60
2021/09/17 00:12:13;;;;;;;41.58;27.17;;;;;;;15.25;85.16;101878.09;5063455;28;20040;-60
2021/09/17 00:14:38;;;;;;;41.45;27.80;;;;;;;15.26;85.26;101879.84;5062170;28;20045;-60
2021/09/17 00:17:04;;;;;;;43.55;26.80;;;;;;;15.26;85.07;101874.56;5064555;28;20075;-60
2021/09/17 00:19:29;;;;;;;43.33;27.88;;;;;;;15.27;84.73;101878.97;5063284;28;20814;-60
2021/09/17 00:21:55;;;;;;;44.55;28.45;;;;;;;15.26;85.04;101874.56;5063776;28;20393;-60
2021/09/17 00:24:20;;;;;;;44.28;27.25;;;;;;;15.28;85.14;101878.09;5064224;28;20032;-59
2021/09/17 00:26:46;;;;;;;44.10;27.50;;;;;;;15.28;85.27;101870.13;5063619;28;20048;-59
2021/09/17 00:29:11;;;;;;;42.05;26.20;;;;;;;15.27;85.26;101869.22;5063423;28;20029;-60
2021/09/17 00:31:37;;;;;;;42.60;27.58;;;;;;;15.26;85.47;101872.78;5064092;28;20147;-60
2021/09/17 00:34:02;;;;;;;43.15;27.35;;;;;;;15.26;85.50;101863.97;5063622;28;20021;-60
2021/09/17 00:36:28;;;;;;;43.08;27.30;;;;;;;15.27;85.64;101863.06;5064497;28;20029;-59
2021/09/17 00:38:53;;;;;;;47.53;27.67;;;;;;;15.26;85.12;101870.13;5061975;28;20037;-60
2021/09/17 00:41:19;;;;;;;46.88;28.65;;;;;;;15.26;85.50;101862.19;5063522;28;20063;-60
2021/09/17 00:43:45;;;;;;;41.25;26.45;;;;;;;15.27;85.15;101858.66;5063958;28;20029;-59
2021/09/17 00:46:10;;;;;;;42.20;26.23;;;;;;;15.28;85.39;101859.53;5063571;28;20511;-61
2021/09/17 00:48:36;;;;;;;41.50;27.13;;;;;;;15.27;85.43;101847.19;5063835;28;20080;-60
2021/09/17 00:51:02;;;;;;;44.67;26.80;;;;;;;15.27;85.32;101849.81;5063662;28;20058;-59
2021/09/17 00:53:33;;;;;;;41.50;26.50;;;;;;;15.27;85.17;101849.81;5063501;28;20052;-59
2021/09/17 00:55:59;;;;;;;42.10;26.88;;;;;;;15.27;85.42;101855.13;5063700;28;20028;-59
2021/09/17 00:58:24;;;;;;;44.72;28.15;;;;;;;15.27;85.47;101844.53;5063460;28;20025;-60
2021/09/17 01:00:50;;;;;;;43.28;27.20;;;;;;;15.27;85.17;101847.19;5063054;28;20021;-60
2021/09/17 01:03:15;;;;;;;43.35;26.55;;;;;;;15.29;85.10;101846.31;5063302;28;20029;-59
2021/09/17 01:05:41;;;;;;;40.53;26.60;;;;;;;15.29;85.38;101845.41;5063076;28;20059;-60
2021/09/17 01:08:07;;;;;;;38.58;26.23;;;;;;;15.30;85.74;101841.88;5063212;28;20097;-59
2021/09/17 01:10:33;;;;;;;42.70;26.20;;;;;;;15.29;85.21;101838.38;5057464;28;20029;-60
2021/09/17 01:12:58;;;;;;;44.95;28.00;;;;;;;15.29;84.94;101835.72;5063540;28;20025;-59
2021/09/17 01:15:24;;;;;;;46.00;26.52;;;;;;;15.31;85.22;101828.63;5062459;28;20035;-60
2021/09/17 01:17:49;;;;;;;44.60;26.42;;;;;;;15.32;85.52;101832.16;5062894;28;20033;-60
2021/09/17 01:20:18;;;;;;;40.95;25.42;;;;;;;15.32;85.08;101826.88;5062780;28;20385;-59
2021/09/17 01:22:45;;;;;;;47.60;27.42;;;;;;;15.32;85.00;101826.88;5062704;28;20041;-60
2021/09/17 01:25:14;;;;;;;45.95;26.65;;;;;;;15.31;85.02;101819.78;5062823;28;20028;-60
2021/09/17 01:27:44;;;;;;;42.15;25.63;;;;;;;15.31;85.28;101827.72;5059743;28;20032;-59
2021/09/17 01:30:11;;;;;;;42.90;25.80;;;;;;;15.31;85.14;101817.16;5061865;28;20109;-59
2021/09/17 01:32:41;;;;;;;42.25;26.85;;;;;;;15.32;85.18;101808.31;5063016;28;20036;-60
2021/09/17 01:35:11;;;;;;;41.22;25.73;;;;;;;15.32;85.68;101813.63;5063092;28;20036;-60
2021/09/17 01:37:38;;;;;;;42.80;26.75;;;;;;;15.33;85.30;101810.06;5063086;28;20029;-60
2021/09/17 01:40:05;;;;;;;48.45;27.35;;;;;;;15.31;85.01;101801.25;5056473;28;20124;-59
2021/09/17 01:42:30;;;;;;;45.50;29.08;;;;;;;15.32;85.19;101800.38;5062301;28;20033;-60
2021/09/17 01:44:56;;;;;;;45.40;28.27;;;;;;;15.32;85.40;101805.69;5062633;28;20036;-59
2021/09/17 01:47:22;;;;;;;42.45;27.75;;;;;;;15.31;85.29;101794.22;5061989;28;20044;-59
2021/09/17 01:49:47;;;;;;;46.97;28.65;;;;;;;15.31;85.45;101794.22;5062444;28;20029;-60
2021/09/17 01:52:13;;;;;;;45.05;28.73;;;;;;;15.31;85.15;101796.88;5062888;28;20131;-60
2021/09/17 01:54:41;;;;;;;51.30;29.90;;;;;;;15.30;85.37;101789.78;5062687;28;20563;-60
2021/09/17 01:57:07;;;;;;;48.22;28.33;;;;;;;15.30;85.21;101792.44;5062825;28;20037;-59
2021/09/17 01:59:32;;;;;;;48.60;28.27;;;;;;;15.31;85.63;101791.56;5062271;28;20025;-60
2021/09/17 02:01:58;;;;;;;42.22;27.73;;;;;;;15.31;85.64;101788.00;5062632;28;20041;-60
2021/09/17 02:04:23;;;;;;;46.08;28.15;;;;;;;15.31;85.25;101785.38;5062327;28;20037;-60
2021/09/17 02:06:49;;;;;;;48.35;30.38;;;;;;;15.31;85.20;101788.91;5062943;28;20029;-59
2021/09/17 02:09:14;;;;;;;46.13;29.52;;;;;;;15.32;85.57;101781.84;5061822;28;20029;-60
2021/09/17 02:11:40;;;;;;;47.78;29.02;;;;;;;15.32;85.89;101782.72;5060905;28;20040;-59
2021/09/17 02:14:06;;;;;;;48.55;29.73;;;;;;;15.33;85.60;101781.84;5062100;28;20025;-59
2021/09/17 02:16:32;;;;;;;49.30;31.30;;;;;;;15.33;85.62;101783.59;5062271;28;20127;-60
2021/09/17 02:18:57;;;;;;;50.55;30.02;;;;;;;15.32;85.48;101777.41;5061592;28;20045;-60
2021/09/17 02:21:23;;;;;;;49.22;30.13;;;;;;;15.32;85.51;101777.41;5062437;28;20102;-59
2021/09/17 02:23:50;;;;;;;55.85;30.38;;;;;;;15.33;86.00;101770.34;5062421;28;20080;-60
2021/09/17 02:26:17;;;;;;;47.75;29.38;;;;;;;15.34;85.88;101769.47;5062241;28;20028;-59
2021/09/17 02:28:43;;;;;;;51.25;30.77;;;;;;;15.36;85.95;101770.34;5062244;28;20036;-59
2021/09/17 02:31:09;;;;;;;55.45;31.20;;;;;;;15.34;85.57;101765.06;5061973;28;20129;-59
2021/09/17 02:33:34;;;;;;;52.72;31.05;;;;;;;15.35;85.79;101768.59;5062375;28;20037;-59
2021/09/17 02:36:00;;;;;;;55.40;30.85;;;;;;;15.35;85.74;101761.53;5064364;28;20039;-59
2021/09/17 02:38:26;;;;;;;54.75;31.83;;;;;;;15.34;85.68;101754.47;5065909;28;20049;-60
2021/09/17 02:40:52;;;;;;;59.35;33.50;;;;;;;15.34;85.54;101758.88;5063844;28;20459;-60
2021/09/17 02:43:18;;;;;;;60.92;32.92;;;;;;;15.34;85.58;101753.59;5065778;28;20039;-59
2021/09/17 02:45:44;;;;;;;59.78;33.20;;;;;;;15.34;85.69;101757.09;5065796;28;20085;-59
2021/09/17 02:48:09;;;;;;;64.65;35.30;;;;;;;15.35;86.03;101748.28;5066460;28;20037;-60
2021/09/17 02:50:35;;;;;;;72.45;35.35;;;;;;;15.35;85.86;101750.94;5065593;28;20025;-60
2021/09/17 02:53:01;;;;;;;69.38;36.75;;;;;;;15.37;86.12;101748.28;5066057;28;20025;-60
2021/09/17 02:55:26;;;;;;;74.70;39.58;;;;;;;15.39;86.00;101741.19;5065568;28;20032;-59
2021/09/17 02:57:52;;;;;;;76.03;39.72;;;;;;;15.42;86.25;101740.28;5065549;28;20040;-59
2021/09/17 03:00:19;;;;;;;81.00;40.90;;;;;;;15.45;86.27;101737.63;5065559;28;20041;-59
2021/09/17 03:02:45;;;;;;;84.05;42.65;;;;;;;15.45;86.39;101732.34;5065428;28;20033;-59
2021/09/17 03:05:11;;;;;;;84.60;43.38;;;;;;;15.45;86.48;101732.34;5065826;28;20091;-60
2021/09/17 03:07:37;;;;;;;80.63;42.17;;;;;;;15.45;86.49;101729.69;5065888;28;20036;-60
2021/09/17 03:10:04;;;;;;;83.53;42.28;;;;;;;15.45;86.51;101733.19;5063385;28;20120;-61
2021/09/17 03:12:30;;;;;;;81.13;41.97;;;;;;;15.46;86.69;101727.00;5065255;28;20052;-59
2021/09/17 03:14:55;;;;;;;81.97;40.53;;;;;;;15.48;86.79;101724.34;5064934;28;20116;-60
2021/09/17 03:17:21;;;;;;;81.72;40.58;;;;;;;15.47;86.92;101720.81;5065481;28;20029;-60
2021/09/17 03:19:46;;;;;;;87.35;41.60;;;;;;;15.48;86.99;101719.03;5064088;28;20041;-59
2021/09/17 03:22:12;;;;;;;87.88;42.45;;;;;;;15.48;86.81;101722.59;5064892;28;20184;-60
2021/09/17 03:24:37;;;;;;;92.22;42.80;;;;;;;15.49;87.15;101718.16;5066236;28;20063;-59
2021/09/17 03:27:03;;;;;;;91.60;43.72;;;;;;;15.50;86.85;101715.50;5065503;28;20059;-59
2021/09/17 03:29:29;;;;;;;89.38;43.20;;;;;;;15.49;86.65;101715.53;5064966;28;20554;-60
2021/09/17 03:31:54;;;;;;;94.78;44.72;;;;;;;15.49;86.93;101710.22;5065047;28;20804;-60
2021/09/17 03:34:20;;;;;;;98.47;44.40;;;;;;;15.49;87.21;101715.53;5064972;28;20032;-59
2021/09/17 03:36:45;;;;;;;85.72;41.60;;;;;;;15.49;87.06;101715.53;5065786;28;20029;-60
2021/09/17 03:39:12;;;;;;;89.10;42.83;;;;;;;15.50;87.07;101712.88;5064219;28;20100;-59
2021/09/17 03:41:39;;;;;;;89.25;42.92;;;;;;;15.51;86.92;101714.59;5064007;28;20025;-60
2021/09/17 03:44:05;;;;;;;92.10;43.53;;;;;;;15.52;86.81;101716.38;5064974;28;20025;-58
2021/09/17 03:46:31;;;;;;;94.03;44.38;;;;;;;15.54;87.19;101704.00;5063518;28;20082;-60
2021/09/17 03:48:56;;;;;;;99.72;47.17;;;;;;;15.55;87.21;101705.75;5065454;28;20079;-59
2021/09/17 03:51:23;;;;;;;98.40;46.40;;;;;;;15.56;86.91;101699.56;5064974;28;20029;-60
2021/09/17 03:53:50;;;;;;;100.93;45.75;;;;;;;15.56;86.91;101707.50;5065073;28;20041;-60
2021/09/17 03:56:15;;;;;;;97.50;43.47;;;;;;;15.59;86.89;101701.28;5064483;28;20033;-60
2021/09/17 03:58:41;;;;;;;99.22;47.30;;;;;;;15.60;86.73;101701.28;5064119;28;20033;-60
2021/09/17 04:01:07;;;;;;;97.90;45.60;;;;;;;15.60;86.96;101698.63;5064350;28;20057;-60
2021/09/17 04:03:32;;;;;;;95.78;45.20;;;;;;;15.60;87.10;101690.69;5064510;28;20068;-60
2021/09/17 04:05:58;;;;;;;104.88;46.78;;;;;;;15.60;87.05;101695.13;5064776;28;20056;-60
2021/09/17 04:08:23;;;;;;;110.65;47.30;;;;;;;15.57;87.26;101693.34;5064203;28;20124;-60
2021/09/17 04:10:49;;;;;;;103.93;45.65;;;;;;;15.56;87.42;101694.25;5063612;28;20029;-60
2021/09/17 04:13:14;;;;;;;98.78;44.03;;;;;;;15.57;87.35;101695.13;5063737;28;20029;-60
2021/09/17 04:15:40;;;;;;;96.70;42.67;;;;;;;15.57;87.41;101701.31;5063929;28;20029;-60
2021/09/17 04:18:05;;;;;;;100.10;44.42;;;;;;;15.56;87.32;101699.56;5064016;28;20139;-60
2021/09/17 04:20:31;;;;;;;102.35;44.60;;;;;;;15.56;87.30;101696.03;5064449;28;20040;-59
2021/09/17 04:22:56;;;;;;;99.95;43.00;;;;;;;15.55;87.58;101702.22;5063905;28;20518;-60
2021/09/17 04:25:22;;;;;;;97.88;43.15;;;;;;;15.54;87.38;101701.34;5064057;28;20071;-60
2021/09/17 04:27:47;;;;;;;98.75;45.75;;;;;;;15.53;87.40;101702.22;5063437;28;20033;-59
2021/09/17 04:30:15;;;;;;;99.43;44.75;;;;;;;15.52;87.12;101702.22;5062857;28;20059;-59
2021/09/17 04:32:43;;;;;;;103.75;45.40;;;;;;;15.50;87.36;101704.91;5064010;28;20033;-60
2021/09/17 04:35:09;;;;;;;108.18;46.95;;;;;;;15.47;87.34;101704.94;5063930;28;20402;-59
2021/09/17 04:37:41;;;;;;;107.22;45.78;;;;;;;15.44;87.26;101697.00;5063780;28;20024;-60
2021/09/17 04:40:09;;;;;;;105.57;47.67;;;;;;;15.42;87.56;101704.09;5059971;28;20025;-60
2021/09/17 04:42:35;;;;;;;106.13;47.30;;;;;;;15.39;87.56;101701.47;5063027;28;20036;-60
2021/09/17 04:45:00;;;;;;;102.15;45.75;;;;;;;15.36;87.43;101705.00;5061317;28;20033;-60
2021/09/17 04:47:26;;;;;;;105.88;49.90;;;;;;;15.36;87.48;101706.78;5064580;28;20032;-59
2021/09/17 04:49:52;;;;;;;107.50;49.30;;;;;;;15.34;87.39;101701.50;5063710;28;20400;-61
2021/09/17 04:52:18;;;;;;;108.07;50.95;;;;;;;15.33;87.67;101702.41;5063511;28;20071;-59
2021/09/17 04:54:44;;;;;;;104.53;50.78;;;;;;;15.33;87.23;101698.84;5063489;28;20052;-60
2021/09/17 04:57:09;;;;;;;106.45;51.13;;;;;;;15.33;87.40;101702.41;5062963;28;20048;-60
2021/09/17 04:59:35;;;;;;;107.70;50.83;;;;;;;15.32;87.46;101697.13;5062337;28;20132;-60
2021/09/17 05:02:00;;;;;;;100.70;49.75;;;;;;;15.30;87.40;101694.47;5062686;28;20036;-60
2021/09/17 05:04:26;;;;;;;107.93;51.90;;;;;;;15.31;87.29;101705.94;5063136;28;20052;-60
2021/09/17 05:06:52;;;;;;;111.00;52.65;;;;;;;15.31;87.35;101698.91;5063663;28;20031;-59
2021/09/17 05:09:17;;;;;;;104.78;50.53;;;;;;;15.31;87.37;101698.00;5062427;28;20029;-59
2021/09/17 05:11:43;;;;;;;103.50;52.47;;;;;;;15.28;87.23;101696.25;5060434;28;21427;-60
2021/09/17 05:14:08;;;;;;;107.85;51.50;;;;;;;15.27;87.41;101701.56;5062362;28;20040;-60
2021/09/17 05:16:34;;;;;;;106.32;52.22;;;;;;;15.25;87.47;101703.34;5062782;28;20025;-60
2021/09/17 05:18:59;;;;;;;98.93;50.47;;;;;;;15.23;87.21;101699.81;5062230;28;20056;-60
2021/09/17 05:21:25;;;;;;;98.18;48.50;;;;;;;15.20;87.23;101703.38;5059709;28;20032;-60
2021/09/17 05:23:51;;;;;;;96.90;49.25;;;;;;;15.17;87.48;101692.81;5056564;28;20058;-61
2021/09/17 05:26:16;;;;;;;106.13;50.25;;;;;;;15.13;87.47;101696.38;5062202;28;20033;-60
2021/09/17 05:28:43;;;;;;;103.13;49.75;;;;;;;15.10;88.03;101697.25;5062521;28;20036;-60
2021/09/17 05:31:09;;;;;;;112.72;53.28;;;;;;;15.06;87.77;101694.66;5059380;28;20117;-60
2021/09/17 05:33:34;;;;;;;110.75;52.42;;;;;;;15.04;87.86;101699.06;5058615;28;20051;-61
2021/09/17 05:36:00;;;;;;;115.53;54.47;;;;;;;15.00;88.01;101696.44;5055949;28;20093;-60
2021/09/17 05:38:25;;;;;;;118.82;53.83;;;;;;;15.00;88.14;101695.56;5056936;28;20057;-59
2021/09/17 05:40:51;;;;;;;117.80;54.72;;;;;;;15.00;88.11;101700.88;5050814;28;20135;-59
2021/09/17 05:43:16;;;;;;;115.60;53.22;;;;;;;15.01;88.46;101702.63;5061057;28;20131;-60
2021/09/17 05:45:42;;;;;;;120.35;53.78;;;;;;;15.00;88.23;101690.28;5060788;28;20071;-59
2021/09/17 05:48:07;;;;;;;121.78;53.95;;;;;;;15.01;88.09;101697.34;5062530;28;20037;-60
2021/09/17 05:50:33;;;;;;;120.45;53.80;;;;;;;15.01;87.95;101698.22;5059493;28;20071;-59
2021/09/17 05:52:58;;;;;;;120.28;54.67;;;;;;;15.02;87.97;101707.03;5062565;28;20101;-61
2021/09/17 05:55:27;;;;;;;115.25;50.33;;;;;;;15.03;87.65;101706.16;5057031;28;20028;-60
2021/09/17 05:57:56;;;;;;;116.95;53.17;;;;;;;15.03;87.52;101708.78;5058617;28;20037;-58
2021/09/17 06:00:22;;;;;;;114.40;51.47;;;;;;;15.02;87.97;101710.53;5062724;28;20029;-58
2021/09/17 06:02:48;;;;;;;120.55;52.85;;;;;;;15.02;88.07;101709.66;5065017;28;20033;-58
2021/09/17 06:05:14;;;;;;;118.20;54.28;;;;;;;15.02;88.19;101710.53;5064427;28;20029;-59
2021/09/17 06:07:43;;;;;;;123.22;54.67;;;;;;;15.04;88.13;101710.53;5063259;28;20025;-60
2021/09/17 06:10:11;;;;;;;121.47;54.25;;;;;;;15.06;88.50;101706.09;5063278;28;20033;-58
2021/09/17 06:12:37;;;;;;;125.32;54.83;;;;;;;15.09;88.68;101702.59;5066675;28;20091;-59
2021/09/17 06:15:03;;;;;;;117.72;53.50;;;;;;;15.12;88.32;101705.19;5068645;28;20020;-58
2021/09/17 06:17:28;;;;;;;124.57;54.20;;;;;;;15.18;88.42;101707.81;5065745;28;20033;-59
2021/09/17 06:19:54;;;;;;;121.30;52.78;;;;;;;15.19;88.22;101713.06;5063100;28;20104;-60
2021/09/17 06:22:19;;;;;;;116.53;53.35;;;;;;;15.25;88.15;101704.22;5064122;28;20513;-58
2021/09/17 06:24:45;;;;;;;119.20;54.08;;;;;;;15.31;87.95;101705.94;5065912;28;20021;-60
2021/09/17 06:27:10;;;;;;;117.18;54.45;;;;;;;15.32;87.96;101699.75;5068554;28;20040;-59
2021/09/17 06:29:36;;;;;;;119.95;55.65;;;;;;;15.36;87.84;101710.31;5065914;28;20035;-59
2021/09/17 06:32:02;;;;;;;126.90;54.53;;;;;;;15.38;87.89;101703.22;5065584;28;20044;-58
2021/09/17 06:34:27;;;;;;;116.82;53.42;;;;;;;15.44;87.95;101707.59;5063570;28;20032;-58
2021/09/17 06:36:53;;;;;;;120.40;55.38;;;;;;;15.50;87.87;101709.31;5065350;28;20100;-59
2021/09/17 06:39:22;;;;;;;128.48;54.85;;;;;;;15.56;87.52;101707.50;5060037;28;20093;-58
2021/09/17 06:41:49;;;;;;;121.82;55.78;;;;;;;15.64;87.57;101711.88;5063845;28;20021;-58
2021/09/17 06:44:15;;;;;;;107.72;50.20;;;;;;;15.73;87.24;101711.78;5066018;28;20033;-58
2021/09/17 06:46:40;;;;;;;110.10;52.15;;;;;;;15.83;86.65;101705.53;5066451;28;20164;-59
2021/09/17 06:49:06;;;;;;;107.60;51.25;;;;;;;15.87;86.50;101707.25;5060311;28;20056;-59
2021/09/17 06:51:32;;;;;;;112.38;53.00;;;;;;;15.92;86.67;101707.22;5067291;28;20025;-59
2021/09/17 06:53:57;;;;;;;111.78;54.53;;;;;;;15.96;86.43;101709.81;5063652;28;20063;-58
2021/09/17 06:56:23;;;;;;;114.55;53.85;;;;;;;16.01;86.27;101707.13;5061052;28;20056;-59
2021/09/17 06:58:48;;;;;;;115.55;55.03;;;;;;;16.07;86.15;101716.78;5064035;28;20036;-61
2021/09/17 07:01:14;;;;;;;107.38;52.10;;;;;;;16.11;86.02;101708.78;5062890;28;20040;-59
2021/09/17 07:03:39;;;;;;;109.55;52.47;;;;;;;16.16;85.93;101714.91;5062879;28;20047;-60
2021/09/17 07:06:05;;;;;;;106.30;53.38;;;;;;;16.23;85.72;101712.19;5065320;28;20381;-61
2021/09/17 07:08:31;;;;;;;105.25;54.08;;;;;;;16.27;85.49;101703.28;5064254;28;20037;-60
2021/09/17 07:10:58;;;;;;;111.07;53.55;;;;;;;16.31;85.42;101705.91;5061031;28;20087;-60
2021/09/17 07:13:23;;;;;;;100.97;51.55;;;;;;;16.40;85.19;101704.03;5064329;28;20033;-60
2021/09/17 07:15:49;;;;;;;103.38;51.63;;;;;;;16.46;85.05;101704.81;5064505;28;20036;-61
2021/09/17 07:18:14;;;;;;;100.30;51.83;;;;;;;16.50;84.67;101695.06;5065184;28;20060;-60
2021/09/17 07:20:40;;;;;;;98.78;50.85;;;;;;;16.55;84.49;101693.22;5063669;28;20032;-61
2021/09/17 07:23:06;;;;;;;100.28;51.25;;;;;;;16.59;84.39;101697.59;5062353;28;20044;-60
2021/09/17 07:25:33;;;;;;;96.10;49.58;;;;;;;16.65;84.45;101694.84;5062518;28;20109;-61
2021/09/17 07:27:59;;;;;;;98.80;50.00;;;;;;;16.73;84.06;101695.63;5066650;28;20064;-60
2021/09/17 07:30:24;;;;;;;100.15;52.75;;;;;;;16.76;84.06;101697.38;5065054;28;20017;-60
2021/09/17 07:32:51;;;;;;;98.43;51.15;;;;;;;16.78;84.01;101695.56;5065411;28;20107;-61
2021/09/17 07:35:17;;;;;;;100.35;49.80;;;;;;;16.84;83.62;101697.28;5062612;28;20036;-61
2021/09/17 07:37:45;;;;;;;90.50;49.10;;;;;;;16.89;83.45;101695.44;5060318;28;20028;-60
2021/09/17 07:40:14;;;;;;;104.13;49.80;;;;;;;16.88;84.10;101699.91;5064975;28;20082;-60
2021/09/17 07:42:44;;;;;;;100.75;49.85;;;;;;;16.95;84.00;101701.53;5061886;28;20033;-60
2021/09/17 07:45:11;;;;;;;84.93;45.47;;;;;;;17.05;83.07;101698.75;5065659;28;20043;-60
2021/09/17 07:47:37;;;;;;;87.63;44.10;;;;;;;17.07;83.12;101703.16;5061006;28;20017;-60
2021/09/17 07:50:04;;;;;;;88.65;45.65;;;;;;;17.15;83.11;101708.34;5063425;28;20044;-60
2021/09/17 07:52:30;;;;;;;99.43;47.38;;;;;;;17.17;83.35;101695.91;5057219;28;20653;-59
2021/09/17 07:54:55;;;;;;;92.38;44.47;;;;;;;17.26;83.33;101687.81;5065168;28;20021;-60
2021/09/17 07:57:21;;;;;;;88.07;46.30;;;;;;;17.35;83.08;101694.72;5060464;28;20021;-59
2021/09/17 07:59:46;;;;;;;88.57;45.88;;;;;;;17.46;82.86;101694.56;5063212;28;20025;-61
2021/09/17 08:02:12;;;;;;;83.28;43.70;;;;;;;17.60;82.09;101691.66;5070245;28;20041;-60
2021/09/17 08:04:40;;;;;;;87.68;44.17;;;;;;;17.68;81.61;101690.63;5063575;28;20025;-60
2021/09/17 08:07:07;;;;;;;80.60;41.53;;;;;;;17.76;81.55;101692.28;5063361;28;20045;-61
2021/09/17 08:09:33;;;;;;;77.13;39.78;;;;;;;17.89;81.10;101707.13;5062585;28;21027;-61
2021/09/17 08:11:59;;;;;;;72.85;39.83;;;;;;;18.02;80.23;101699.81;5062457;28;20036;-60
2021/09/17 08:14:24;;;;;;;80.68;40.85;;;;;;;18.11;79.90;101707.63;5063289;28;20025;-61
2021/09/17 08:16:50;;;;;;;77.03;41.42;;;;;;;18.14;79.73;101701.34;5064540;28;20033;-61
2021/09/17 08:19:16;;;;;;;75.45;40.05;;;;;;;18.16;79.75;101705.72;5062995;28;20191;-60
2021/09/17 08:21:43;;;;;;;74.85;39.40;;;;;;;18.16;79.81;101705.72;5064381;28;20057;-60
2021/09/17 08:24:14;;;;;;;71.07;38.88;;;;;;;18.21;79.42;101701.22;5064934;28;20059;-61
2021/09/17 08:26:45;;;;;;;69.60;38.97;;;;;;;18.25;78.96;101704.69;5061938;28;20063;-61
2021/09/17 08:29:11;;;;;;;61.95;37.88;;;;;;;18.25;78.40;101708.22;5062145;28;20063;-60
2021/09/17 08:31:37;;;;;;;57.42;34.55;;;;;;;18.28;78.31;101715.28;5063560;28;20147;-60
2021/09/17 08:34:03;;;;;;;63.72;34.97;;;;;;;18.27;78.24;101717.03;5062245;28;20033;-60
2021/09/17 08:36:29;;;;;;;58.63;34.90;;;;;;;18.26;77.91;101711.75;5062209;28;20120;-60
2021/09/17 08:38:54;;;;;;;58.25;33.22;;;;;;;18.22;78.43;101720.69;5062710;28;20033;-61
2021/09/17 08:41:20;;;;;;;56.30;32.53;;;;;;;18.28;78.36;101715.28;5062963;28;20071;-60
2021/09/17 08:43:45;;;;;;;51.63;31.20;;;;;;;18.39;78.25;101710.63;5063939;28;20053;-60
2021/09/17 08:46:14;;;;;;;51.13;31.83;;;;;;;18.46;77.47;101714.88;5057964;28;20025;-61
2021/09/17 08:48:41;;;;;;;49.28;31.58;;;;;;;18.61;77.54;101719.00;5062151;28;20036;-61
2021/09/17 08:51:07;;;;;;;48.22;32.05;;;;;;;18.74;76.35;101718.75;5062889;28;20029;-60
2021/09/17 08:53:33;;;;;;;38.30;26.00;;;;;;;18.94;76.18;101713.91;5057743;28;20043;-61
2021/09/17 08:55:58;;;;;;;45.70;27.40;;;;;;;19.16;75.55;101716.06;5063142;28;20049;-61
2021/09/17 08:58:24;;;;;;;27.27;19.50;;;;;;;19.41;74.78;101716.34;5063260;28;20523;-61
2021/09/17 09:00:50;;;;;;;32.88;21.38;;;;;;;19.50;73.30;101715.25;5069617;28;20147;-60
2021/09/17 09:03:32;;;;;;;23.02;16.55;;;;;;;19.56;72.07;101717.75;5056620;28;20041;-61
2021/09/17 09:06:15;;;;;;;26.95;18.30;;;;;;;19.45;71.39;101718.91;5060780;28;20029;-61
2021/09/17 09:08:43;;;;;;;26.15;18.13;;;;;;;19.22;72.38;101721.22;5057364;28;20471;-60
2021/09/17 09:11:20;;;;;;;21.45;16.15;;;;;;;19.09;72.67;101718.88;5064918;28;20033;-61
2021/09/17 09:14:08;;;;;;;26.35;17.40;;;;;;;19.01;72.56;101717.28;5063680;28;20514;-60
2021/09/17 09:16:46;;;;;;;23.42;15.57;;;;;;;19.03;73.19;101724.31;5062973;28;20044;-62
2021/09/17 09:19:15;;;;;;;16.83;13.90;;;;;;;19.24;72.68;101714.97;5062920;28;20167;-61
2021/09/17 09:21:41;;;;;;;20.85;14.30;;;;;;;19.38;72.41;101722.63;5062581;28;20045;-60
2021/09/17 09:24:09;;;;;;;19.98;12.90;;;;;;;19.57;71.66;101723.03;5066307;28;20071;-61
2021/09/17 09:26:35;;;;;;;17.75;12.85;;;;;;;19.76;71.01;101722.59;5060911;28;20032;-61
2021/09/17 09:29:01;;;;;;;13.80;10.32;;;;;;;19.98;69.81;101721.13;5061989;28;20800;-60
2021/09/17 09:31:39;;;;;;;12.45;9.32;;;;;;;20.24;68.48;101714.19;5062755;28;20032;-61
2021/09/17 09:34:04;;;;;;;12.65;9.18;;;;;;;20.36;67.17;101715.63;5067901;28;20077;-61
2021/09/17 09:36:34;;;;;;;11.77;9.80;;;;;;;20.39;66.89;101719.06;5060877;28;20969;-61
2021/09/17 09:39:01;;;;;;;14.82;9.57;;;;;;;20.49;66.73;101716.13;5060946;28;20037;-61
2021/09/17 09:41:33;;;;;;;14.30;9.85;;;;;;;20.53;67.30;101717.78;5063806;28;20369;-61
2021/09/17 09:44:04;;;;;;;12.98;10.02;;;;;;;20.60;67.07;101720.31;5059504;28;20037;-61
2021/09/17 09:46:33;;;;;;;13.57;10.10;;;;;;;20.77;64.79;101718.91;5060064;28;20052;-60
2021/09/17 09:48:58;;;;;;;12.43;9.57;;;;;;;20.81;64.29;101713.44;5059270;28;20025;-60
2021/09/17 09:51:29;;;;;;;16.17;10.55;;;;;;;20.94;64.22;101711.22;5056779;28;20036;-62
2021/09/17 09:53:57;;;;;;;19.27;10.70;;;;;;;20.97;64.01;101707.63;5059657;28;20095;-62
2021/09/17 09:56:23;;;;;;;15.30;9.75;;;;;;;21.05;63.62;101713.56;5062181;28;20063;-61
2021/09/17 09:58:50;;;;;;;12.25;10.27;;;;;;;21.13;63.59;101713.31;5062892;28;20025;-61
2021/09/17 10:01:23;;;;;;;16.33;10.93;;;;;;;21.31;63.53;101711.88;5062381;28;20037;-61
2021/09/17 10:03:56;;;;;;;14.23;10.70;;;;;;;21.43;63.15;101716.81;5062622;28;20033;-62
2021/09/17 10:06:24;;;;;;;17.35;9.90;;;;;;;21.41;62.39;101711.50;5054583;28;20021;-60
2021/09/17 10:08:54;;;;;;;11.77;8.18;;;;;;;21.33;62.81;101705.53;5061260;28;20059;-61
2021/09/17 10:11:23;;;;;;;10.80;7.05;;;;;;;21.01;64.23;101718.13;5060586;28;20037;-61
2021/09/17 10:13:50;;;;;;;6.75;4.53;;;;;;;20.90;63.45;101720.28;5058075;28;20083;-60
2021/09/17 10:16:17;;;;;;;6.53;3.33;;;;;;;20.77;62.70;101718.91;5055238;28;20043;-60
2021/09/17 10:18:44;;;;;;;6.65;3.60;;;;;;;20.69;63.05;101723.59;5062577;28;20049;-61
2021/09/17 10:21:13;;;;;;;7.22;4.20;;;;;;;20.61;64.64;101719.38;5061526;28;20120;-61
2021/09/17 10:23:44;;;;;;;6.45;3.15;;;;;;;20.60;64.23;101716.72;5058871;28;20052;-62
2021/09/17 10:26:13;;;;;;;8.20;3.33;;;;;;;20.61;63.79;101715.81;5062026;28;20116;-61
2021/09/17 10:29:08;;;;;;;4.47;3.17;;;;;;;20.70;63.41;101712.00;5054965;28;20029;-61
2021/09/17 10:31:42;;;;;;;4.78;2.70;;;;;;;20.84;62.10;101709.78;5060412;28;20043;-61
2021/09/17 10:34:29;;;;;;;4.80;3.33;;;;;;;20.90;59.71;101709.59;5058128;28;20041;-60
2021/09/17 10:36:55;;;;;;;4.53;2.60;;;;;;;20.85;59.43;101706.22;5055988;28;20039;-60
2021/09/17 10:39:21;;;;;;;5.28;2.40;;;;;;;20.83;59.41;101708.91;5059431;28;20052;-60
2021/09/17 10:42:17;;;;;;;5.30;2.88;;;;;;;20.80;60.31;101706.31;5058478;28;20506;-60
2021/09/17 10:45:01;;;;;;;5.97;3.17;;;;;;;20.81;60.75;101708.09;5055038;28;20044;-61
2021/09/17 10:47:39;;;;;;;3.05;2.75;;;;;;;20.73;60.82;101699.41;5060535;28;20051;-61
2021/09/17 10:50:07;;;;;;;4.35;2.67;;;;;;;20.82;60.15;101708.97;5061915;28;20040;-61
2021/09/17 10:52:41;;;;;;;6.03;2.63;;;;;;;20.82;61.26;101712.50;5061937;28;20060;-62
2021/09/17 10:55:08;;;;;;;5.75;2.75;;;;;;;20.93;60.62;101713.97;5061409;28;20032;-60
2021/09/17 10:58:12;;;;;;;5.55;2.90;;;;;;;20.85;60.80;101706.22;5063178;28;20040;-60
2021/09/17 11:00:58;;;;;;;4.57;2.85;;;;;;;20.79;60.75;101707.28;5035906;28;20142;-61
2021/09/17 11:03:36;;;;;;;2.67;2.28;;;;;;;20.76;60.62;101717.16;5042971;28;20487;-60
2021/09/17 11:06:20;;;;;;;5.13;3.00;;;;;;;20.64;60.68;101716.63;5033540;28;20045;-60
2021/09/17 11:08:51;;;;;;;4.38;2.80;;;;;;;20.45;61.52;101712.69;5038944;28;20105;-60